sensor_id;sensor_type;location;lat;lon;timestamp;P1;durP1;ratioP1;P2;durP2;ratioP2
5543;SDS011;2795;47.652;13.128;2023-03-12T00:01:14;11.83;;;5.00;;
5543;SDS011;2795;47.652;13.128;2023-03-12T00:03:42;8.70;;;4.63;;
5543;SDS011;2795;47.652;13.128;2023-03-12T00:06:09;11.10;;;4.63;;
5543;SDS011;2795;47.652;13.128;2023-03-12T00:08:36;9.83;;;4.57;;
5543;SDS011;2795;47.652;13.128;2023-03-12T00:11:07;7.10;;;4.03;;
5543;SDS011;2795;47.652;13.128;2023-03-12T00:13:38;7.83;;;4.30;;
5543;SDS011;2795;47.652;13.128;2023-03-12T00:16:06;7.97;;;4.03;;
5543;SDS011;2795;47.652;13.128;2023-03-12T00:18:34;11.57;;;5.27;;
5543;SDS011;2795;47.652;13.128;2023-03-12T00:21:00;7.80;;;4.50;;
5543;SDS011;2795;47.652;13.128;2023-03-12T00:23:27;10.67;;;5.17;;
5543;SDS011;2795;47.652;13.128;2023-03-12T00:25:58;15.67;;;5.87;;
5543;SDS011;2795;47.652;13.128;2023-03-12T00:28:29;13.40;;;5.67;;
5543;SDS011;2795;47.652;13.128;2023-03-12T00:30:56;16.00;;;6.00;;
5543;SDS011;2795;47.652;13.128;2023-03-12T00:33:24;11.97;;;5.67;;
5543;SDS011;2795;47.652;13.128;2023-03-12T00:35:51;14.27;;;6.43;;
5543;SDS011;2795;47.652;13.128;2023-03-12T00:38:18;9.70;;;5.40;;
5543;SDS011;2795;47.652;13.128;2023-03-12T00:40:45;14.37;;;6.20;;
5543;SDS011;2795;47.652;13.128;2023-03-12T00:43:12;12.87;;;5.00;;
5543;SDS011;2795;47.652;13.128;2023-03-12T00:45:39;12.83;;;4.83;;
5543;SDS011;2795;47.652;13.128;2023-03-12T00:48:05;16.13;;;5.40;;
5543;SDS011;2795;47.652;13.128;2023-03-12T00:50:32;8.83;;;4.67;;
5543;SDS011;2795;47.652;13.128;2023-03-12T00:52:58;11.60;;;5.10;;
5543;SDS011;2795;47.652;13.128;2023-03-12T00:55:25;15.90;;;6.10;;
5543;SDS011;2795;47.652;13.128;2023-03-12T00:57:52;14.57;;;5.50;;
5543;SDS011;2795;47.652;13.128;2023-03-12T01:00:18;16.70;;;5.63;;
5543;SDS011;2795;47.652;13.128;2023-03-12T01:02:45;12.27;;;5.40;;
5543;SDS011;2795;47.652;13.128;2023-03-12T01:05:12;14.43;;;5.20;;
5543;SDS011;2795;47.652;13.128;2023-03-12T01:07:39;8.90;;;4.77;;
5543;SDS011;2795;47.652;13.128;2023-03-12T01:10:06;8.60;;;4.60;;
5543;SDS011;2795;47.652;13.128;2023-03-12T01:12:34;13.60;;;4.97;;
5543;SDS011;2795;47.652;13.128;2023-03-12T01:15:00;9.20;;;4.63;;
5543;SDS011;2795;47.652;13.128;2023-03-12T01:17:28;6.50;;;3.83;;
5543;SDS011;2795;47.652;13.128;2023-03-12T01:19:54;8.13;;;4.00;;
5543;SDS011;2795;47.652;13.128;2023-03-12T01:22:21;5.97;;;3.47;;
5543;SDS011;2795;47.652;13.128;2023-03-12T01:24:47;6.73;;;3.60;;
5543;SDS011;2795;47.652;13.128;2023-03-12T01:27:14;10.53;;;4.37;;
5543;SDS011;2795;47.652;13.128;2023-03-12T01:29:41;6.80;;;3.53;;
5543;SDS011;2795;47.652;13.128;2023-03-12T01:32:07;5.53;;;3.40;;
5543;SDS011;2795;47.652;13.128;2023-03-12T01:34:34;10.80;;;4.10;;
5543;SDS011;2795;47.652;13.128;2023-03-12T01:37:01;9.40;;;4.07;;
5543;SDS011;2795;47.652;13.128;2023-03-12T01:39:27;8.80;;;4.10;;
5543;SDS011;2795;47.652;13.128;2023-03-12T01:41:54;12.33;;;4.70;;
5543;SDS011;2795;47.652;13.128;2023-03-12T01:44:21;11.53;;;4.50;;
5543;SDS011;2795;47.652;13.128;2023-03-12T01:46:48;8.50;;;4.13;;
5543;SDS011;2795;47.652;13.128;2023-03-12T01:49:19;9.93;;;3.60;;
5543;SDS011;2795;47.652;13.128;2023-03-12T01:54:32;5.30;;;3.37;;
5543;SDS011;2795;47.652;13.128;2023-03-12T01:57:01;4.97;;;3.27;;
5543;SDS011;2795;47.652;13.128;2023-03-12T01:59:32;10.10;;;3.87;;
5543;SDS011;2795;47.652;13.128;2023-03-12T02:02:01;11.73;;;4.30;;
5543;SDS011;2795;47.652;13.128;2023-03-12T02:04:29;12.60;;;4.40;;
5543;SDS011;2795;47.652;13.128;2023-03-12T02:07:02;14.70;;;5.10;;
5543;SDS011;2795;47.652;13.128;2023-03-12T02:09:32;13.90;;;5.40;;
5543;SDS011;2795;47.652;13.128;2023-03-12T02:12:00;12.70;;;4.77;;
5543;SDS011;2795;47.652;13.128;2023-03-12T02:14:27;9.73;;;4.03;;
5543;SDS011;2795;47.652;13.128;2023-03-12T02:16:54;6.30;;;3.57;;
5543;SDS011;2795;47.652;13.128;2023-03-12T02:19:45;6.23;;;3.47;;
5543;SDS011;2795;47.652;13.128;2023-03-12T02:22:13;15.83;;;4.07;;
5543;SDS011;2795;47.652;13.128;2023-03-12T02:27:07;6.20;;;3.50;;
5543;SDS011;2795;47.652;13.128;2023-03-12T02:29:34;9.23;;;4.17;;
5543;SDS011;2795;47.652;13.128;2023-03-12T02:32:02;11.00;;;4.33;;
5543;SDS011;2795;47.652;13.128;2023-03-12T02:34:30;8.40;;;3.50;;
5543;SDS011;2795;47.652;13.128;2023-03-12T02:36:56;8.20;;;3.77;;
5543;SDS011;2795;47.652;13.128;2023-03-12T02:39:23;8.57;;;4.00;;
5543;SDS011;2795;47.652;13.128;2023-03-12T02:41:50;10.17;;;4.20;;
5543;SDS011;2795;47.652;13.128;2023-03-12T02:44:21;8.40;;;4.00;;
5543;SDS011;2795;47.652;13.128;2023-03-12T02:46:52;7.60;;;4.20;;
5543;SDS011;2795;47.652;13.128;2023-03-12T02:49:20;8.80;;;4.30;;
5543;SDS011;2795;47.652;13.128;2023-03-12T02:51:48;9.30;;;4.40;;
5543;SDS011;2795;47.652;13.128;2023-03-12T02:54:15;15.90;;;4.87;;
5543;SDS011;2795;47.652;13.128;2023-03-12T02:56:43;7.80;;;4.50;;
5543;SDS011;2795;47.652;13.128;2023-03-12T02:59:10;10.37;;;4.10;;
5543;SDS011;2795;47.652;13.128;2023-03-12T03:01:39;10.67;;;4.23;;
5543;SDS011;2795;47.652;13.128;2023-03-12T03:04:06;11.53;;;4.20;;
5543;SDS011;2795;47.652;13.128;2023-03-12T03:06:34;8.10;;;3.90;;
5543;SDS011;2795;47.652;13.128;2023-03-12T03:09:01;12.63;;;5.23;;
5543;SDS011;2795;47.652;13.128;2023-03-12T03:11:28;10.00;;;4.17;;
5543;SDS011;2795;47.652;13.128;2023-03-12T03:13:54;9.27;;;4.43;;
5543;SDS011;2795;47.652;13.128;2023-03-12T03:16:21;8.37;;;3.90;;
5543;SDS011;2795;47.652;13.128;2023-03-12T03:18:48;10.07;;;4.00;;
5543;SDS011;2795;47.652;13.128;2023-03-12T03:21:15;12.60;;;4.40;;
5543;SDS011;2795;47.652;13.128;2023-03-12T03:23:43;8.97;;;4.67;;
5543;SDS011;2795;47.652;13.128;2023-03-12T03:26:11;13.70;;;5.43;;
5543;SDS011;2795;47.652;13.128;2023-03-12T03:28:38;11.57;;;5.50;;
5543;SDS011;2795;47.652;13.128;2023-03-12T03:31:05;8.50;;;4.47;;
5543;SDS011;2795;47.652;13.128;2023-03-12T03:33:32;8.60;;;4.30;;
5543;SDS011;2795;47.652;13.128;2023-03-12T03:36:00;16.20;;;4.80;;
5543;SDS011;2795;47.652;13.128;2023-03-12T03:38:28;14.10;;;4.80;;
5543;SDS011;2795;47.652;13.128;2023-03-12T03:40:58;10.47;;;4.10;;
5543;SDS011;2795;47.652;13.128;2023-03-12T03:43:25;9.80;;;4.40;;
5543;SDS011;2795;47.652;13.128;2023-03-12T03:45:56;8.90;;;4.37;;
5543;SDS011;2795;47.652;13.128;2023-03-12T03:48:29;9.07;;;4.03;;
5543;SDS011;2795;47.652;13.128;2023-03-12T03:51:02;8.87;;;3.97;;
5543;SDS011;2795;47.652;13.128;2023-03-12T03:53:31;9.70;;;5.00;;
5543;SDS011;2795;47.652;13.128;2023-03-12T03:55:57;8.87;;;4.17;;
5543;SDS011;2795;47.652;13.128;2023-03-12T03:58:24;13.90;;;4.40;;
5543;SDS011;2795;47.652;13.128;2023-03-12T04:00:50;9.70;;;4.93;;
5543;SDS011;2795;47.652;13.128;2023-03-12T04:03:19;8.70;;;4.50;;
5543;SDS011;2795;47.652;13.128;2023-03-12T04:05:45;9.27;;;4.60;;
5543;SDS011;2795;47.652;13.128;2023-03-12T04:08:12;13.70;;;4.57;;
5543;SDS011;2795;47.652;13.128;2023-03-12T04:10:39;11.30;;;4.20;;
5543;SDS011;2795;47.652;13.128;2023-03-12T04:13:06;8.17;;;3.77;;
5543;SDS011;2795;47.652;13.128;2023-03-12T04:15:32;15.60;;;5.10;;
5543;SDS011;2795;47.652;13.128;2023-03-12T04:17:59;15.33;;;5.10;;
5543;SDS011;2795;47.652;13.128;2023-03-12T04:20:26;11.60;;;4.43;;
5543;SDS011;2795;47.652;13.128;2023-03-12T04:22:53;8.77;;;3.93;;
5543;SDS011;2795;47.652;13.128;2023-03-12T04:25:19;11.80;;;4.60;;
5543;SDS011;2795;47.652;13.128;2023-03-12T04:27:46;8.10;;;4.77;;
5543;SDS011;2795;47.652;13.128;2023-03-12T04:30:12;9.93;;;4.80;;
5543;SDS011;2795;47.652;13.128;2023-03-12T04:32:39;9.60;;;4.47;;
5543;SDS011;2795;47.652;13.128;2023-03-12T04:35:06;13.20;;;4.80;;
5543;SDS011;2795;47.652;13.128;2023-03-12T04:37:33;9.40;;;4.40;;
5543;SDS011;2795;47.652;13.128;2023-03-12T04:40:00;6.73;;;3.80;;
5543;SDS011;2795;47.652;13.128;2023-03-12T04:42:28;9.17;;;4.37;;
5543;SDS011;2795;47.652;13.128;2023-03-12T04:44:55;9.10;;;3.50;;
5543;SDS011;2795;47.652;13.128;2023-03-12T04:47:21;10.20;;;4.80;;
5543;SDS011;2795;47.652;13.128;2023-03-12T04:49:48;11.87;;;3.90;;
5543;SDS011;2795;47.652;13.128;2023-03-12T04:52:14;9.07;;;4.23;;
5543;SDS011;2795;47.652;13.128;2023-03-12T04:54:43;9.10;;;4.63;;
5543;SDS011;2795;47.652;13.128;2023-03-12T04:57:13;12.73;;;5.30;;
5543;SDS011;2795;47.652;13.128;2023-03-12T04:59:39;12.67;;;5.50;;
5543;SDS011;2795;47.652;13.128;2023-03-12T05:02:06;10.50;;;4.77;;
5543;SDS011;2795;47.652;13.128;2023-03-12T05:04:33;9.97;;;4.63;;
5543;SDS011;2795;47.652;13.128;2023-03-12T05:06:59;9.63;;;4.53;;
5543;SDS011;2795;47.652;13.128;2023-03-12T05:09:26;7.80;;;4.43;;
5543;SDS011;2795;47.652;13.128;2023-03-12T05:11:52;6.50;;;4.30;;
5543;SDS011;2795;47.652;13.128;2023-03-12T05:14:19;8.37;;;4.20;;
5543;SDS011;2795;47.652;13.128;2023-03-12T05:16:46;10.70;;;4.50;;
5543;SDS011;2795;47.652;13.128;2023-03-12T05:19:13;10.73;;;4.70;;
5543;SDS011;2795;47.652;13.128;2023-03-12T05:21:40;12.77;;;5.00;;
5543;SDS011;2795;47.652;13.128;2023-03-12T05:24:09;10.83;;;4.43;;
5543;SDS011;2795;47.652;13.128;2023-03-12T05:26:36;16.13;;;5.03;;
5543;SDS011;2795;47.652;13.128;2023-03-12T05:29:03;10.30;;;4.53;;
5543;SDS011;2795;47.652;13.128;2023-03-12T05:31:31;9.23;;;4.60;;
5543;SDS011;2795;47.652;13.128;2023-03-12T05:34:02;11.90;;;5.20;;
5543;SDS011;2795;47.652;13.128;2023-03-12T05:36:29;9.77;;;4.27;;
5543;SDS011;2795;47.652;13.128;2023-03-12T05:38:55;8.23;;;4.10;;
5543;SDS011;2795;47.652;13.128;2023-03-12T05:41:23;9.77;;;4.00;;
5543;SDS011;2795;47.652;13.128;2023-03-12T05:43:52;11.33;;;5.43;;
5543;SDS011;2795;47.652;13.128;2023-03-12T05:46:19;16.50;;;5.00;;
5543;SDS011;2795;47.652;13.128;2023-03-12T05:48:46;8.17;;;4.27;;
5543;SDS011;2795;47.652;13.128;2023-03-12T05:51:13;9.97;;;4.63;;
5543;SDS011;2795;47.652;13.128;2023-03-12T05:53:40;10.97;;;5.40;;
5543;SDS011;2795;47.652;13.128;2023-03-12T05:56:07;13.53;;;5.67;;
5543;SDS011;2795;47.652;13.128;2023-03-12T05:58:37;12.93;;;5.03;;
5543;SDS011;2795;47.652;13.128;2023-03-12T06:01:10;11.00;;;5.00;;
5543;SDS011;2795;47.652;13.128;2023-03-12T06:03:38;13.43;;;5.97;;
5543;SDS011;2795;47.652;13.128;2023-03-12T06:06:04;11.70;;;4.90;;
5543;SDS011;2795;47.652;13.128;2023-03-12T06:08:31;14.93;;;6.60;;
5543;SDS011;2795;47.652;13.128;2023-03-12T06:10:58;10.37;;;5.33;;
5543;SDS011;2795;47.652;13.128;2023-03-12T06:13:24;8.23;;;4.77;;
5543;SDS011;2795;47.652;13.128;2023-03-12T06:15:52;10.23;;;4.50;;
5543;SDS011;2795;47.652;13.128;2023-03-12T06:18:19;10.53;;;4.83;;
5543;SDS011;2795;47.652;13.128;2023-03-12T06:20:46;10.70;;;5.20;;
5543;SDS011;2795;47.652;13.128;2023-03-12T06:23:12;10.50;;;5.00;;
5543;SDS011;2795;47.652;13.128;2023-03-12T06:25:39;19.13;;;5.60;;
5543;SDS011;2795;47.652;13.128;2023-03-12T06:28:06;7.97;;;4.70;;
5543;SDS011;2795;47.652;13.128;2023-03-12T06:30:33;11.73;;;5.50;;
5543;SDS011;2795;47.652;13.128;2023-03-12T06:32:59;18.77;;;8.07;;
5543;SDS011;2795;47.652;13.128;2023-03-12T06:35:26;15.13;;;6.07;;
5543;SDS011;2795;47.652;13.128;2023-03-12T06:37:53;11.23;;;5.30;;
5543;SDS011;2795;47.652;13.128;2023-03-12T06:40:19;12.00;;;5.40;;
5543;SDS011;2795;47.652;13.128;2023-03-12T06:42:46;9.03;;;5.07;;
5543;SDS011;2795;47.652;13.128;2023-03-12T06:45:13;13.80;;;6.07;;
5543;SDS011;2795;47.652;13.128;2023-03-12T06:47:39;11.97;;;5.50;;
5543;SDS011;2795;47.652;13.128;2023-03-12T06:50:06;10.63;;;5.97;;
5543;SDS011;2795;47.652;13.128;2023-03-12T06:52:33;13.97;;;5.80;;
5543;SDS011;2795;47.652;13.128;2023-03-12T06:54:59;12.43;;;5.90;;
5543;SDS011;2795;47.652;13.128;2023-03-12T06:57:26;12.30;;;5.90;;
5543;SDS011;2795;47.652;13.128;2023-03-12T06:59:52;11.73;;;5.97;;
5543;SDS011;2795;47.652;13.128;2023-03-12T07:02:19;13.50;;;6.13;;
5543;SDS011;2795;47.652;13.128;2023-03-12T07:04:45;13.03;;;6.50;;
5543;SDS011;2795;47.652;13.128;2023-03-12T07:07:12;14.80;;;5.97;;
5543;SDS011;2795;47.652;13.128;2023-03-12T07:09:38;48.30;;;6.73;;
5543;SDS011;2795;47.652;13.128;2023-03-12T07:12:05;13.70;;;6.60;;
5543;SDS011;2795;47.652;13.128;2023-03-12T07:14:32;14.73;;;7.40;;
5543;SDS011;2795;47.652;13.128;2023-03-12T07:16:59;15.00;;;6.73;;
5543;SDS011;2795;47.652;13.128;2023-03-12T07:19:27;12.33;;;6.10;;
5543;SDS011;2795;47.652;13.128;2023-03-12T07:21:55;12.47;;;5.90;;
5543;SDS011;2795;47.652;13.128;2023-03-12T07:24:22;11.20;;;5.47;;
5543;SDS011;2795;47.652;13.128;2023-03-12T07:26:49;12.40;;;5.43;;
5543;SDS011;2795;47.652;13.128;2023-03-12T07:29:15;16.50;;;6.70;;
5543;SDS011;2795;47.652;13.128;2023-03-12T07:31:42;18.97;;;7.53;;
5543;SDS011;2795;47.652;13.128;2023-03-12T07:34:08;21.07;;;8.53;;
5543;SDS011;2795;47.652;13.128;2023-03-12T07:36:35;18.53;;;7.80;;
5543;SDS011;2795;47.652;13.128;2023-03-12T07:39:02;13.97;;;7.00;;
5543;SDS011;2795;47.652;13.128;2023-03-12T07:41:29;11.80;;;6.13;;
5543;SDS011;2795;47.652;13.128;2023-03-12T07:43:56;14.87;;;6.70;;
5543;SDS011;2795;47.652;13.128;2023-03-12T07:46:23;13.00;;;6.10;;
5543;SDS011;2795;47.652;13.128;2023-03-12T07:48:49;18.97;;;6.80;;
5543;SDS011;2795;47.652;13.128;2023-03-12T07:51:16;13.13;;;5.70;;
5543;SDS011;2795;47.652;13.128;2023-03-12T07:53:42;12.37;;;5.97;;
5543;SDS011;2795;47.652;13.128;2023-03-12T07:56:09;15.67;;;6.33;;
5543;SDS011;2795;47.652;13.128;2023-03-12T07:58:36;16.10;;;6.20;;
5543;SDS011;2795;47.652;13.128;2023-03-12T08:01:04;14.23;;;6.27;;
5543;SDS011;2795;47.652;13.128;2023-03-12T08:03:32;14.77;;;6.23;;
5543;SDS011;2795;47.652;13.128;2023-03-12T08:06:00;10.90;;;5.30;;
5543;SDS011;2795;47.652;13.128;2023-03-12T08:08:28;10.17;;;5.17;;
5543;SDS011;2795;47.652;13.128;2023-03-12T08:10:57;8.93;;;4.47;;
5543;SDS011;2795;47.652;13.128;2023-03-12T08:13:24;13.40;;;5.40;;
5543;SDS011;2795;47.652;13.128;2023-03-12T08:15:51;12.77;;;5.50;;
5543;SDS011;2795;47.652;13.128;2023-03-12T08:18:19;10.70;;;5.03;;
5543;SDS011;2795;47.652;13.128;2023-03-12T08:20:48;12.57;;;5.07;;
5543;SDS011;2795;47.652;13.128;2023-03-12T08:23:17;15.23;;;5.53;;
5543;SDS011;2795;47.652;13.128;2023-03-12T08:25:45;7.83;;;4.90;;
5543;SDS011;2795;47.652;13.128;2023-03-12T08:28:15;9.00;;;4.83;;
5543;SDS011;2795;47.652;13.128;2023-03-12T08:30:46;12.30;;;5.50;;
5543;SDS011;2795;47.652;13.128;2023-03-12T08:33:13;14.07;;;5.50;;
5543;SDS011;2795;47.652;13.128;2023-03-12T08:35:40;10.97;;;5.23;;
5543;SDS011;2795;47.652;13.128;2023-03-12T08:38:06;10.60;;;4.90;;
5543;SDS011;2795;47.652;13.128;2023-03-12T08:40:33;12.60;;;5.13;;
5543;SDS011;2795;47.652;13.128;2023-03-12T08:43:00;7.47;;;4.73;;
5543;SDS011;2795;47.652;13.128;2023-03-12T08:45:27;7.40;;;4.40;;
5543;SDS011;2795;47.652;13.128;2023-03-12T08:47:54;8.50;;;4.67;;
5543;SDS011;2795;47.652;13.128;2023-03-12T08:50:21;24.60;;;10.10;;
5543;SDS011;2795;47.652;13.128;2023-03-12T08:52:50;14.67;;;6.07;;
5543;SDS011;2795;47.652;13.128;2023-03-12T08:55:17;13.00;;;5.20;;
5543;SDS011;2795;47.652;13.128;2023-03-12T08:57:43;10.50;;;4.53;;
5543;SDS011;2795;47.652;13.128;2023-03-12T09:00:10;26.77;;;4.53;;
5543;SDS011;2795;47.652;13.128;2023-03-12T09:02:43;12.00;;;4.60;;
5543;SDS011;2795;47.652;13.128;2023-03-12T09:05:11;14.53;;;5.60;;
5543;SDS011;2795;47.652;13.128;2023-03-12T09:07:38;8.03;;;4.10;;
5543;SDS011;2795;47.652;13.128;2023-03-12T09:10:04;14.43;;;5.30;;
5543;SDS011;2795;47.652;13.128;2023-03-12T09:12:31;9.70;;;4.83;;
5543;SDS011;2795;47.652;13.128;2023-03-12T09:14:58;10.20;;;4.77;;
5543;SDS011;2795;47.652;13.128;2023-03-12T09:17:30;9.43;;;4.90;;
5543;SDS011;2795;47.652;13.128;2023-03-12T09:19:57;10.67;;;4.63;;
5543;SDS011;2795;47.652;13.128;2023-03-12T09:22:24;7.63;;;4.63;;
5543;SDS011;2795;47.652;13.128;2023-03-12T09:24:50;10.43;;;5.33;;
5543;SDS011;2795;47.652;13.128;2023-03-12T09:27:17;11.73;;;5.03;;
5543;SDS011;2795;47.652;13.128;2023-03-12T09:29:44;7.03;;;3.97;;
5543;SDS011;2795;47.652;13.128;2023-03-12T09:32:25;7.83;;;4.73;;
5543;SDS011;2795;47.652;13.128;2023-03-12T09:34:52;9.40;;;4.40;;
5543;SDS011;2795;47.652;13.128;2023-03-12T09:37:19;8.30;;;4.17;;
5543;SDS011;2795;47.652;13.128;2023-03-12T09:39:49;10.33;;;4.70;;
5543;SDS011;2795;47.652;13.128;2023-03-12T09:42:39;14.50;;;4.27;;
5543;SDS011;2795;47.652;13.128;2023-03-12T09:45:23;8.77;;;4.47;;
5543;SDS011;2795;47.652;13.128;2023-03-12T09:47:52;15.83;;;5.00;;
5543;SDS011;2795;47.652;13.128;2023-03-12T09:50:28;9.10;;;4.17;;
5543;SDS011;2795;47.652;13.128;2023-03-12T09:55:39;12.37;;;4.87;;
5543;SDS011;2795;47.652;13.128;2023-03-12T09:58:26;13.67;;;4.90;;
5543;SDS011;2795;47.652;13.128;2023-03-12T10:06:20;9.90;;;4.20;;
5543;SDS011;2795;47.652;13.128;2023-03-12T10:28:33;9.00;;;3.80;;
5543;SDS011;2795;47.652;13.128;2023-03-12T10:31:03;13.17;;;4.30;;
5543;SDS011;2795;47.652;13.128;2023-03-12T10:33:49;14.33;;;5.10;;
5543;SDS011;2795;47.652;13.128;2023-03-12T10:36:20;10.00;;;3.80;;
5543;SDS011;2795;47.652;13.128;2023-03-12T10:38:50;10.07;;;4.50;;
5543;SDS011;2795;47.652;13.128;2023-03-12T10:41:21;11.77;;;4.23;;
5543;SDS011;2795;47.652;13.128;2023-03-12T10:43:53;14.57;;;4.50;;
5543;SDS011;2795;47.652;13.128;2023-03-12T10:48:50;8.30;;;3.50;;
5543;SDS011;2795;47.652;13.128;2023-03-12T10:51:17;6.43;;;3.57;;
5543;SDS011;2795;47.652;13.128;2023-03-12T10:53:44;5.03;;;3.23;;
5543;SDS011;2795;47.652;13.128;2023-03-12T10:56:15;7.60;;;3.47;;
5543;SDS011;2795;47.652;13.128;2023-03-12T10:58:43;8.47;;;3.90;;
5543;SDS011;2795;47.652;13.128;2023-03-12T11:03:44;6.90;;;3.30;;
5543;SDS011;2795;47.652;13.128;2023-03-12T11:06:25;9.33;;;3.77;;
5543;SDS011;2795;47.652;13.128;2023-03-12T11:11:42;4.87;;;3.03;;
5543;SDS011;2795;47.652;13.128;2023-03-12T11:16:46;9.03;;;3.53;;
5543;SDS011;2795;47.652;13.128;2023-03-12T11:19:14;8.93;;;3.43;;
5543;SDS011;2795;47.652;13.128;2023-03-12T11:21:56;10.07;;;3.53;;
5543;SDS011;2795;47.652;13.128;2023-03-12T11:24:28;15.30;;;3.77;;
5543;SDS011;2795;47.652;13.128;2023-03-12T11:27:01;8.40;;;3.67;;
5543;SDS011;2795;47.652;13.128;2023-03-12T11:29:32;9.93;;;4.10;;
5543;SDS011;2795;47.652;13.128;2023-03-12T11:32:09;19.40;;;4.43;;
5543;SDS011;2795;47.652;13.128;2023-03-12T11:34:43;10.50;;;3.60;;
5543;SDS011;2795;47.652;13.128;2023-03-12T11:37:20;10.50;;;4.17;;
5543;SDS011;2795;47.652;13.128;2023-03-12T11:48:23;9.50;;;3.67;;
5543;SDS011;2795;47.652;13.128;2023-03-12T11:56:27;12.90;;;3.43;;
5543;SDS011;2795;47.652;13.128;2023-03-12T12:09:58;4.43;;;3.03;;
5543;SDS011;2795;47.652;13.128;2023-03-12T12:18:47;7.80;;;3.10;;
5543;SDS011;2795;47.652;13.128;2023-03-12T12:27:00;4.90;;;2.87;;
5543;SDS011;2795;47.652;13.128;2023-03-12T12:35:16;6.03;;;3.00;;
5543;SDS011;2795;47.652;13.128;2023-03-12T12:37:47;7.60;;;3.20;;
5543;SDS011;2795;47.652;13.128;2023-03-12T12:40:20;9.27;;;3.47;;
5543;SDS011;2795;47.652;13.128;2023-03-12T12:43:03;8.07;;;3.07;;
5543;SDS011;2795;47.652;13.128;2023-03-12T12:45:32;10.50;;;3.37;;
5543;SDS011;2795;47.652;13.128;2023-03-12T12:48:03;9.07;;;3.30;;
5543;SDS011;2795;47.652;13.128;2023-03-12T12:50:34;9.77;;;3.50;;
5543;SDS011;2795;47.652;13.128;2023-03-12T12:58:22;8.33;;;3.80;;
5543;SDS011;2795;47.652;13.128;2023-03-12T13:01:18;14.13;;;4.33;;
5543;SDS011;2795;47.652;13.128;2023-03-12T13:03:45;7.50;;;3.20;;
5543;SDS011;2795;47.652;13.128;2023-03-12T13:06:12;11.30;;;3.70;;
5543;SDS011;2795;47.652;13.128;2023-03-12T13:11:50;10.83;;;3.57;;
5543;SDS011;2795;47.652;13.128;2023-03-12T13:24:53;12.00;;;4.03;;
5543;SDS011;2795;47.652;13.128;2023-03-12T13:29:57;7.47;;;3.50;;
5543;SDS011;2795;47.652;13.128;2023-03-12T13:45:53;8.70;;;3.27;;
5543;SDS011;2795;47.652;13.128;2023-03-12T13:48:33;13.93;;;3.60;;
5543;SDS011;2795;47.652;13.128;2023-03-12T13:51:09;12.13;;;4.07;;
5543;SDS011;2795;47.652;13.128;2023-03-12T13:53:40;9.03;;;3.43;;
5543;SDS011;2795;47.652;13.128;2023-03-12T13:56:11;10.40;;;3.30;;
5543;SDS011;2795;47.652;13.128;2023-03-12T13:58:40;9.73;;;3.03;;
5543;SDS011;2795;47.652;13.128;2023-03-12T14:01:36;11.70;;;4.67;;
5543;SDS011;2795;47.652;13.128;2023-03-12T14:04:09;7.10;;;3.40;;
5543;SDS011;2795;47.652;13.128;2023-03-12T14:09:49;5.47;;;3.30;;
5543;SDS011;2795;47.652;13.128;2023-03-12T14:18:19;5.40;;;2.67;;
5543;SDS011;2795;47.652;13.128;2023-03-12T14:20:49;7.13;;;3.40;;
5543;SDS011;2795;47.652;13.128;2023-03-12T14:23:19;11.33;;;4.93;;
5543;SDS011;2795;47.652;13.128;2023-03-12T14:25:46;9.30;;;3.90;;
5543;SDS011;2795;47.652;13.128;2023-03-12T14:28:20;7.53;;;3.13;;
5543;SDS011;2795;47.652;13.128;2023-03-12T14:31:04;8.70;;;3.57;;
5543;SDS011;2795;47.652;13.128;2023-03-12T14:33:44;11.97;;;4.60;;
5543;SDS011;2795;47.652;13.128;2023-03-12T14:36:19;7.50;;;3.80;;
5543;SDS011;2795;47.652;13.128;2023-03-12T14:38:48;7.60;;;3.47;;
5543;SDS011;2795;47.652;13.128;2023-03-12T14:44:04;10.27;;;3.30;;
5543;SDS011;2795;47.652;13.128;2023-03-12T14:46:36;11.07;;;3.80;;
5543;SDS011;2795;47.652;13.128;2023-03-12T14:49:18;12.60;;;5.00;;
5543;SDS011;2795;47.652;13.128;2023-03-12T14:51:45;10.87;;;4.70;;
5543;SDS011;2795;47.652;13.128;2023-03-12T14:54:17;13.47;;;4.60;;
5543;SDS011;2795;47.652;13.128;2023-03-12T14:56:44;12.27;;;4.10;;
5543;SDS011;2795;47.652;13.128;2023-03-12T14:59:25;9.63;;;4.03;;
5543;SDS011;2795;47.652;13.128;2023-03-12T15:01:59;3.90;;;2.70;;
5543;SDS011;2795;47.652;13.128;2023-03-12T15:04:29;4.60;;;2.63;;
5543;SDS011;2795;47.652;13.128;2023-03-12T15:06:59;7.13;;;3.20;;
5543;SDS011;2795;47.652;13.128;2023-03-12T15:09:30;7.00;;;3.37;;
5543;SDS011;2795;47.652;13.128;2023-03-12T15:15:00;3.40;;;2.30;;
5543;SDS011;2795;47.652;13.128;2023-03-12T15:17:30;14.20;;;3.27;;
5543;SDS011;2795;47.652;13.128;2023-03-12T15:19:57;5.23;;;2.40;;
5543;SDS011;2795;47.652;13.128;2023-03-12T15:22:24;7.43;;;2.70;;
5543;SDS011;2795;47.652;13.128;2023-03-12T15:24:53;7.57;;;2.53;;
5543;SDS011;2795;47.652;13.128;2023-03-12T15:29:54;5.30;;;2.50;;
5543;SDS011;2795;47.652;13.128;2023-03-12T15:32:23;9.37;;;3.40;;
5543;SDS011;2795;47.652;13.128;2023-03-12T15:34:51;8.60;;;2.90;;
5543;SDS011;2795;47.652;13.128;2023-03-12T15:37:26;5.43;;;2.90;;
5543;SDS011;2795;47.652;13.128;2023-03-12T15:40:04;9.13;;;3.27;;
5543;SDS011;2795;47.652;13.128;2023-03-12T15:42:37;6.17;;;2.73;;
5543;SDS011;2795;47.652;13.128;2023-03-12T15:45:15;12.00;;;3.60;;
5543;SDS011;2795;47.652;13.128;2023-03-12T15:47:44;13.80;;;3.07;;
5543;SDS011;2795;47.652;13.128;2023-03-12T15:50:16;6.90;;;2.77;;
5543;SDS011;2795;47.652;13.128;2023-03-12T15:52:57;8.50;;;3.00;;
5543;SDS011;2795;47.652;13.128;2023-03-12T15:55:29;6.10;;;3.40;;
5543;SDS011;2795;47.652;13.128;2023-03-12T15:57:57;6.60;;;3.43;;
5543;SDS011;2795;47.652;13.128;2023-03-12T16:02:59;9.47;;;4.30;;
5543;SDS011;2795;47.652;13.128;2023-03-12T16:05:36;7.27;;;3.80;;
5543;SDS011;2795;47.652;13.128;2023-03-12T16:08:12;13.90;;;4.90;;
5543;SDS011;2795;47.652;13.128;2023-03-12T16:10:41;15.83;;;4.83;;
5543;SDS011;2795;47.652;13.128;2023-03-12T16:13:08;10.53;;;4.40;;
5543;SDS011;2795;47.652;13.128;2023-03-12T16:15:39;7.40;;;3.20;;
5543;SDS011;2795;47.652;13.128;2023-03-12T16:18:13;8.03;;;3.90;;
5543;SDS011;2795;47.652;13.128;2023-03-12T16:20:41;12.67;;;4.00;;
5543;SDS011;2795;47.652;13.128;2023-03-12T16:23:08;10.50;;;3.73;;
5543;SDS011;2795;47.652;13.128;2023-03-12T16:25:35;5.87;;;3.00;;
5543;SDS011;2795;47.652;13.128;2023-03-12T16:28:03;4.80;;;2.83;;
5543;SDS011;2795;47.652;13.128;2023-03-12T16:30:32;6.27;;;3.37;;
5543;SDS011;2795;47.652;13.128;2023-03-12T16:33:00;9.80;;;4.20;;
5543;SDS011;2795;47.652;13.128;2023-03-12T16:35:28;6.83;;;3.37;;
5543;SDS011;2795;47.652;13.128;2023-03-12T16:38:00;7.57;;;3.53;;
5543;SDS011;2795;47.652;13.128;2023-03-12T16:40:34;5.33;;;2.90;;
5543;SDS011;2795;47.652;13.128;2023-03-12T16:43:03;5.23;;;2.70;;
5543;SDS011;2795;47.652;13.128;2023-03-12T16:45:33;6.20;;;2.87;;
5543;SDS011;2795;47.652;13.128;2023-03-12T16:48:02;8.70;;;3.73;;
5543;SDS011;2795;47.652;13.128;2023-03-12T16:50:29;9.73;;;3.53;;
5543;SDS011;2795;47.652;13.128;2023-03-12T16:52:56;3.37;;;2.80;;
5543;SDS011;2795;47.652;13.128;2023-03-12T16:55:27;9.50;;;3.47;;
5543;SDS011;2795;47.652;13.128;2023-03-12T16:57:56;5.90;;;2.90;;
5543;SDS011;2795;47.652;13.128;2023-03-12T17:00:25;5.40;;;2.90;;
5543;SDS011;2795;47.652;13.128;2023-03-12T17:02:53;9.00;;;4.17;;
5543;SDS011;2795;47.652;13.128;2023-03-12T17:05:23;7.70;;;3.80;;
5543;SDS011;2795;47.652;13.128;2023-03-12T17:07:51;8.80;;;3.90;;
5543;SDS011;2795;47.652;13.128;2023-03-12T17:10:18;9.17;;;3.73;;
5543;SDS011;2795;47.652;13.128;2023-03-12T17:12:44;10.50;;;4.13;;
5543;SDS011;2795;47.652;13.128;2023-03-12T17:15:14;16.57;;;6.03;;
5543;SDS011;2795;47.652;13.128;2023-03-12T17:17:44;14.53;;;4.93;;
5543;SDS011;2795;47.652;13.128;2023-03-12T17:20:15;12.73;;;4.53;;
5543;SDS011;2795;47.652;13.128;2023-03-12T17:22:47;10.07;;;4.07;;
5543;SDS011;2795;47.652;13.128;2023-03-12T17:25:22;7.77;;;4.20;;
5543;SDS011;2795;47.652;13.128;2023-03-12T17:27:50;10.33;;;4.70;;